Decoded Metar for KGTB (FORT DRUM in NY, USA) (IATA:GTB) | Meteo·Mobile Aviation Weather
aviador You're here:

KGTB Decoded Metar

FORT DRUM in NY, USA
Report Time2018-09-18 21:56:00
UTC Time2018-09-18 22:07:31
Flight Rules vfr VFR
Wind360° at 07 kt
W.Decomp.*RWY 03: 6.7 kt HW 2 kt LCW
RWY 33: 5.1 kt HW 4.8 kt RCW
RWY 08: 2.7 kt HW 6.4 kt LCW
Visibility9999 m
Phenomena:N/A
Clouds:Broken 030 Hf
Expected CloudBase > 2,000 ft AGL from Temp-Dew spread
Ceiling3,000 ft
Temp25°C (ISA +11)
Dew Point20°C (74% RH)
QNH1009 hPa
Density Alt2,438 ft
Elevation679 ft
Report Wrong Elevation
Raw Report
KGTB 182156Z AUTO 36007KT 10SM BKN030 25/20 A2980 RMK AO2 SLP089
T02500200 TSNO $=

Extra information for KGTB:More info

Metar Taf Metar & Taf Last 4 Metars F.Rules Stats Wind Profile Meteogram Temp Stats Airport Information Weather charts Add Link Nearby VenuesMetar ALERT Operation Metar Decoded Social comments

AIRNAV info for KGTB